sensor_id;sensor_type;location;lat;lon;timestamp;pressure;altitude;pressure_sealevel;temperature;humidity
70009;BME280;59542;37.950;-122.338;2023-05-10T00:01:07;101298.91;;;21.47;40.76
70009;BME280;59542;37.950;-122.338;2023-05-10T00:03:34;101301.06;;;21.34;39.24
70009;BME280;59542;37.950;-122.338;2023-05-10T00:06:00;101301.03;;;21.29;38.66
70009;BME280;59542;37.950;-122.338;2023-05-10T00:08:26;101298.09;;;21.41;38.57
70009;BME280;59542;37.950;-122.338;2023-05-10T00:10:53;101300.50;;;21.38;40.07
70009;BME280;59542;37.950;-122.338;2023-05-10T00:13:19;101311.75;;;21.56;39.84
70009;BME280;59542;37.950;-122.338;2023-05-10T00:15:45;101318.88;;;21.68;37.71
70009;BME280;59542;37.950;-122.338;2023-05-10T00:18:11;101307.69;;;21.64;39.04
70009;BME280;59542;37.950;-122.338;2023-05-10T00:20:38;101312.22;;;21.33;40.98
70009;BME280;59542;37.950;-122.338;2023-05-10T00:23:04;101311.22;;;21.49;38.86
70009;BME280;59542;37.950;-122.338;2023-05-10T00:25:30;101311.47;;;21.53;39.00
70009;BME280;59542;37.950;-122.338;2023-05-10T00:27:56;101304.13;;;21.58;40.21
70009;BME280;59542;37.950;-122.338;2023-05-10T00:30:23;101306.22;;;21.31;41.29
70009;BME280;59542;37.950;-122.338;2023-05-10T00:32:49;101308.03;;;21.10;42.04
70009;BME280;59542;37.950;-122.338;2023-05-10T00:35:16;101309.16;;;20.72;42.16
70009;BME280;59542;37.950;-122.338;2023-05-10T00:37:42;101309.19;;;20.77;41.79
70009;BME280;59542;37.950;-122.338;2023-05-10T00:40:08;101302.72;;;20.88;41.98
70009;BME280;59542;37.950;-122.338;2023-05-10T00:42:35;101304.09;;;20.91;42.03
70009;BME280;59542;37.950;-122.338;2023-05-10T00:45:01;101306.06;;;20.58;41.98
70009;BME280;59542;37.950;-122.338;2023-05-10T00:47:28;101303.19;;;20.43;43.18
70009;BME280;59542;37.950;-122.338;2023-05-10T00:49:55;101315.88;;;20.27;43.32
70009;BME280;59542;37.950;-122.338;2023-05-10T00:52:21;101316.88;;;20.21;43.74
70009;BME280;59542;37.950;-122.338;2023-05-10T00:54:51;101309.75;;;20.15;43.87
70009;BME280;59542;37.950;-122.338;2023-05-10T00:57:18;101314.97;;;20.16;43.28
70009;BME280;59542;37.950;-122.338;2023-05-10T00:59:45;101317.78;;;20.31;42.25
70009;BME280;59542;37.950;-122.338;2023-05-10T01:02:12;101322.41;;;19.99;43.81
70009;BME280;59542;37.950;-122.338;2023-05-10T01:04:38;101322.91;;;19.96;43.36
70009;BME280;59542;37.950;-122.338;2023-05-10T01:07:05;101332.13;;;19.95;43.64
70009;BME280;59542;37.950;-122.338;2023-05-10T01:09:32;101332.09;;;19.90;43.49
70009;BME280;59542;37.950;-122.338;2023-05-10T01:11:59;101319.00;;;19.87;42.85
70009;BME280;59542;37.950;-122.338;2023-05-10T01:14:26;101316.91;;;19.67;41.87
70009;BME280;59542;37.950;-122.338;2023-05-10T01:16:53;101323.19;;;19.50;43.58
70009;BME280;59542;37.950;-122.338;2023-05-10T01:19:24;101315.19;;;19.17;45.37
70009;BME280;59542;37.950;-122.338;2023-05-10T01:31:01;101326.03;;;18.95;45.26
70009;BME280;59542;37.950;-122.338;2023-05-10T01:36:32;101321.34;;;18.90;45.05
70009;BME280;59542;37.950;-122.338;2023-05-10T01:42:07;101323.59;;;18.98;46.10
70009;BME280;59542;37.950;-122.338;2023-05-10T01:44:42;101318.09;;;19.10;45.23
70009;BME280;59542;37.950;-122.338;2023-05-10T01:47:48;101320.84;;;19.15;44.97
70009;BME280;59542;37.950;-122.338;2023-05-10T01:50:27;101334.41;;;18.93;45.68
70009;BME280;59542;37.950;-122.338;2023-05-10T01:52:57;101331.06;;;19.08;46.02
70009;BME280;59542;37.950;-122.338;2023-05-10T01:55:30;101323.44;;;19.05;45.71
70009;BME280;59542;37.950;-122.338;2023-05-10T01:58:10;101326.28;;;19.15;45.99
70009;BME280;59542;37.950;-122.338;2023-05-10T02:00:43;101325.41;;;19.32;45.67
70009;BME280;59542;37.950;-122.338;2023-05-10T02:03:11;101313.78;;;19.14;46.08
70009;BME280;59542;37.950;-122.338;2023-05-10T02:05:39;101332.47;;;19.11;44.56
70009;BME280;59542;37.950;-122.338;2023-05-10T02:08:07;101331.19;;;18.96;45.28
70009;BME280;59542;37.950;-122.338;2023-05-10T02:10:34;101334.41;;;18.93;45.59
70009;BME280;59542;37.950;-122.338;2023-05-10T02:13:02;101335.75;;;19.13;44.97
70009;BME280;59542;37.950;-122.338;2023-05-10T02:15:30;101336.56;;;19.13;44.51
70009;BME280;59542;37.950;-122.338;2023-05-10T02:17:57;101337.72;;;19.17;44.44
70009;BME280;59542;37.950;-122.338;2023-05-10T02:20:24;101340.28;;;19.07;45.00
70009;BME280;59542;37.950;-122.338;2023-05-10T02:22:54;101350.34;;;18.90;44.78
70009;BME280;59542;37.950;-122.338;2023-05-10T02:25:21;101344.84;;;19.23;44.69
70009;BME280;59542;37.950;-122.338;2023-05-10T02:27:49;101335.50;;;19.14;44.47
70009;BME280;59542;37.950;-122.338;2023-05-10T02:30:16;101343.84;;;19.30;44.17
70009;BME280;59542;37.950;-122.338;2023-05-10T02:32:44;101341.63;;;19.26;43.87
70009;BME280;59542;37.950;-122.338;2023-05-10T02:35:12;101351.78;;;19.36;43.89
70009;BME280;59542;37.950;-122.338;2023-05-10T02:37:39;101354.72;;;18.74;45.74
70009;BME280;59542;37.950;-122.338;2023-05-10T02:40:07;101351.00;;;18.46;46.63
70009;BME280;59542;37.950;-122.338;2023-05-10T02:42:37;101358.63;;;18.16;47.60
70009;BME280;59542;37.950;-122.338;2023-05-10T02:45:12;101362.44;;;17.75;48.87
70009;BME280;59542;37.950;-122.338;2023-05-10T02:47:39;101368.63;;;17.35;49.94
70009;BME280;59542;37.950;-122.338;2023-05-10T02:50:06;101378.94;;;17.61;48.98
70009;BME280;59542;37.950;-122.338;2023-05-10T02:52:42;101369.66;;;17.46;48.69
70009;BME280;59542;37.950;-122.338;2023-05-10T02:55:14;101371.34;;;17.23;49.94
70009;BME280;59542;37.950;-122.338;2023-05-10T02:57:52;101373.38;;;17.16;49.85
70009;BME280;59542;37.950;-122.338;2023-05-10T03:00:20;101376.53;;;16.78;51.21
70009;BME280;59542;37.950;-122.338;2023-05-10T03:02:46;101378.34;;;16.54;51.49
70009;BME280;59542;37.950;-122.338;2023-05-10T03:05:13;101382.34;;;16.63;51.54
70009;BME280;59542;37.950;-122.338;2023-05-10T03:07:39;101389.59;;;16.39;51.98
70009;BME280;59542;37.950;-122.338;2023-05-10T03:10:06;101388.63;;;16.22;53.10
70009;BME280;59542;37.950;-122.338;2023-05-10T03:12:52;101384.69;;;16.06;53.61
70009;BME280;59542;37.950;-122.338;2023-05-10T03:18:29;101398.72;;;15.59;55.10
70009;BME280;59542;37.950;-122.338;2023-05-10T03:21:03;101403.97;;;15.54;55.20
70009;BME280;59542;37.950;-122.338;2023-05-10T03:23:38;101403.09;;;15.61;55.47
70009;BME280;59542;37.950;-122.338;2023-05-10T03:26:07;101410.00;;;15.38;55.62
70009;BME280;59542;37.950;-122.338;2023-05-10T03:28:36;101409.53;;;15.41;56.11
70009;BME280;59542;37.950;-122.338;2023-05-10T03:31:04;101408.25;;;15.44;56.01
70009;BME280;59542;37.950;-122.338;2023-05-10T03:33:31;101404.19;;;15.35;55.93
70009;BME280;59542;37.950;-122.338;2023-05-10T03:35:58;101414.16;;;15.34;56.14
70009;BME280;59542;37.950;-122.338;2023-05-10T03:38:24;101423.47;;;15.38;55.99
70009;BME280;59542;37.950;-122.338;2023-05-10T03:40:50;101423.00;;;15.23;56.72
70009;BME280;59542;37.950;-122.338;2023-05-10T03:43:16;101426.91;;;15.27;55.84
70009;BME280;59542;37.950;-122.338;2023-05-10T03:45:43;101431.09;;;15.23;56.02
70009;BME280;59542;37.950;-122.338;2023-05-10T03:48:09;101442.97;;;15.15;56.37
70009;BME280;59542;37.950;-122.338;2023-05-10T03:50:35;101430.59;;;15.08;56.71
70009;BME280;59542;37.950;-122.338;2023-05-10T03:53:01;101436.28;;;14.99;57.27
70009;BME280;59542;37.950;-122.338;2023-05-10T03:55:27;101440.72;;;14.87;57.41
70009;BME280;59542;37.950;-122.338;2023-05-10T03:57:55;101434.97;;;14.84;57.64
70009;BME280;59542;37.950;-122.338;2023-05-10T04:00:21;101442.88;;;14.78;57.43
70009;BME280;59542;37.950;-122.338;2023-05-10T04:02:47;101437.09;;;14.75;57.72
70009;BME280;59542;37.950;-122.338;2023-05-10T04:05:14;101434.63;;;14.73;58.32
70009;BME280;59542;37.950;-122.338;2023-05-10T04:07:40;101442.88;;;14.78;58.15
70009;BME280;59542;37.950;-122.338;2023-05-10T04:10:07;101439.19;;;14.98;57.03
70009;BME280;59542;37.950;-122.338;2023-05-10T04:12:33;101437.47;;;14.78;57.97
70009;BME280;59542;37.950;-122.338;2023-05-10T04:14:59;101439.41;;;14.96;57.53
70009;BME280;59542;37.950;-122.338;2023-05-10T04:17:26;101433.50;;;14.81;58.20
70009;BME280;59542;37.950;-122.338;2023-05-10T04:19:52;101437.00;;;14.88;57.93
70009;BME280;59542;37.950;-122.338;2023-05-10T04:22:20;101446.28;;;14.92;57.93
70009;BME280;59542;37.950;-122.338;2023-05-10T04:24:46;101446.56;;;14.84;58.16
70009;BME280;59542;37.950;-122.338;2023-05-10T04:27:12;101444.91;;;14.83;58.14
70009;BME280;59542;37.950;-122.338;2023-05-10T04:29:39;101454.91;;;14.76;58.15
70009;BME280;59542;37.950;-122.338;2023-05-10T04:32:05;101449.69;;;14.81;57.63
70009;BME280;59542;37.950;-122.338;2023-05-10T04:34:31;101461.34;;;14.75;58.30
70009;BME280;59542;37.950;-122.338;2023-05-10T04:36:59;101461.22;;;14.63;58.53
70009;BME280;59542;37.950;-122.338;2023-05-10T04:39:26;101455.31;;;14.41;59.13
70009;BME280;59542;37.950;-122.338;2023-05-10T04:41:52;101451.84;;;14.34;58.97
70009;BME280;59542;37.950;-122.338;2023-05-10T04:44:18;101455.31;;;14.41;58.45
70009;BME280;59542;37.950;-122.338;2023-05-10T04:46:45;101456.94;;;14.49;57.72
70009;BME280;59542;37.950;-122.338;2023-05-10T04:49:11;101451.63;;;14.36;57.92
70009;BME280;59542;37.950;-122.338;2023-05-10T04:51:38;101465.53;;;14.26;58.04
70009;BME280;59542;37.950;-122.338;2023-05-10T04:54:04;101468.63;;;14.30;57.66
70009;BME280;59542;37.950;-122.338;2023-05-10T04:56:30;101462.44;;;14.29;57.58
70009;BME280;59542;37.950;-122.338;2023-05-10T04:58:56;101466.13;;;14.35;57.66
70009;BME280;59542;37.950;-122.338;2023-05-10T05:01:23;101471.56;;;14.28;57.56
70009;BME280;59542;37.950;-122.338;2023-05-10T05:03:49;101479.25;;;14.18;58.10
70009;BME280;59542;37.950;-122.338;2023-05-10T05:06:16;101480.22;;;14.30;57.38
70009;BME280;59542;37.950;-122.338;2023-05-10T05:08:42;101479.53;;;14.48;56.90
70009;BME280;59542;37.950;-122.338;2023-05-10T05:11:08;101481.47;;;14.34;58.14
70009;BME280;59542;37.950;-122.338;2023-05-10T05:13:34;101475.63;;;14.37;57.75
70009;BME280;59542;37.950;-122.338;2023-05-10T05:16:04;101477.91;;;14.47;57.97
70009;BME280;59542;37.950;-122.338;2023-05-10T05:18:31;101474.75;;;14.43;58.16
70009;BME280;59542;37.950;-122.338;2023-05-10T05:20:57;101474.38;;;14.40;58.06
70009;BME280;59542;37.950;-122.338;2023-05-10T05:23:23;101475.81;;;14.42;57.68
70009;BME280;59542;37.950;-122.338;2023-05-10T05:25:53;101475.00;;;14.42;57.27
70009;BME280;59542;37.950;-122.338;2023-05-10T05:28:22;101471.69;;;14.40;56.97
70009;BME280;59542;37.950;-122.338;2023-05-10T05:30:48;101468.00;;;14.34;57.50
70009;BME280;59542;37.950;-122.338;2023-05-10T05:33:14;101472.97;;;14.31;57.39
70009;BME280;59542;37.950;-122.338;2023-05-10T05:35:41;101470.91;;;14.33;57.47
70009;BME280;59542;37.950;-122.338;2023-05-10T05:38:10;101466.34;;;14.33;56.45
70009;BME280;59542;37.950;-122.338;2023-05-10T05:40:36;101466.78;;;14.30;56.27
70009;BME280;59542;37.950;-122.338;2023-05-10T05:43:02;101462.03;;;14.25;56.47
70009;BME280;59542;37.950;-122.338;2023-05-10T05:45:29;101464.34;;;14.22;56.01
70009;BME280;59542;37.950;-122.338;2023-05-10T05:47:55;101468.31;;;14.13;56.53
70009;BME280;59542;37.950;-122.338;2023-05-10T05:50:21;101464.97;;;14.17;56.41
70009;BME280;59542;37.950;-122.338;2023-05-10T05:52:48;101455.03;;;14.18;56.43
70009;BME280;59542;37.950;-122.338;2023-05-10T05:55:14;101466.66;;;14.12;56.19
70009;BME280;59542;37.950;-122.338;2023-05-10T05:57:40;101461.09;;;14.07;56.30
70009;BME280;59542;37.950;-122.338;2023-05-10T06:00:07;101455.66;;;14.13;56.40
70009;BME280;59542;37.950;-122.338;2023-05-10T06:02:33;101464.84;;;13.99;56.94
70009;BME280;59542;37.950;-122.338;2023-05-10T06:04:59;101468.09;;;14.14;56.34
70009;BME280;59542;37.950;-122.338;2023-05-10T06:07:26;101459.81;;;14.09;56.03
70009;BME280;59542;37.950;-122.338;2023-05-10T06:09:52;101459.91;;;13.96;56.48
70009;BME280;59542;37.950;-122.338;2023-05-10T06:12:18;101455.94;;;13.98;56.82
70009;BME280;59542;37.950;-122.338;2023-05-10T06:14:44;101451.78;;;14.03;56.35
70009;BME280;59542;37.950;-122.338;2023-05-10T06:17:10;101460.50;;;13.98;56.46
70009;BME280;59542;37.950;-122.338;2023-05-10T06:19:37;101446.25;;;13.91;56.29
70009;BME280;59542;37.950;-122.338;2023-05-10T06:22:03;101448.13;;;13.90;56.41
70009;BME280;59542;37.950;-122.338;2023-05-10T06:24:29;101442.50;;;13.92;56.61
70009;BME280;59542;37.950;-122.338;2023-05-10T06:26:55;101447.06;;;13.91;56.89
70009;BME280;59542;37.950;-122.338;2023-05-10T06:29:22;101438.41;;;13.89;57.03
70009;BME280;59542;37.950;-122.338;2023-05-10T06:31:48;101441.28;;;13.88;57.35
70009;BME280;59542;37.950;-122.338;2023-05-10T06:34:14;101433.84;;;13.90;59.61
70009;BME280;59542;37.950;-122.338;2023-05-10T06:36:40;101444.63;;;13.77;62.56
70009;BME280;59542;37.950;-122.338;2023-05-10T06:39:06;101444.72;;;13.43;65.52
70009;BME280;59542;37.950;-122.338;2023-05-10T06:41:33;101442.84;;;13.57;65.74
70009;BME280;59542;37.950;-122.338;2023-05-10T06:43:59;101443.00;;;13.69;65.12
70009;BME280;59542;37.950;-122.338;2023-05-10T06:46:25;101439.53;;;13.48;66.16
70009;BME280;59542;37.950;-122.338;2023-05-10T06:48:51;101434.34;;;13.54;66.15
70009;BME280;59542;37.950;-122.338;2023-05-10T06:51:18;101434.34;;;13.67;66.04
70009;BME280;59542;37.950;-122.338;2023-05-10T06:53:44;101438.72;;;13.48;66.88
70009;BME280;59542;37.950;-122.338;2023-05-10T06:56:10;101445.28;;;13.65;66.67
70009;BME280;59542;37.950;-122.338;2023-05-10T06:58:36;101443.25;;;13.61;66.58
70009;BME280;59542;37.950;-122.338;2023-05-10T07:01:04;101438.13;;;13.39;67.08
70009;BME280;59542;37.950;-122.338;2023-05-10T07:03:31;101439.16;;;13.45;67.31
70009;BME280;59542;37.950;-122.338;2023-05-10T07:06:02;101443.91;;;13.36;67.36
70009;BME280;59542;37.950;-122.338;2023-05-10T07:08:30;101432.16;;;13.24;68.30
70009;BME280;59542;37.950;-122.338;2023-05-10T07:11:04;101428.59;;;13.37;68.02
70009;BME280;59542;37.950;-122.338;2023-05-10T07:13:33;101432.34;;;13.29;67.87
70009;BME280;59542;37.950;-122.338;2023-05-10T07:16:00;101423.25;;;13.17;67.98
70009;BME280;59542;37.950;-122.338;2023-05-10T07:18:27;101425.09;;;13.36;67.92
70009;BME280;59542;37.950;-122.338;2023-05-10T07:20:54;101422.63;;;13.02;69.14
70009;BME280;59542;37.950;-122.338;2023-05-10T07:23:20;101419.97;;;13.22;67.48
70009;BME280;59542;37.950;-122.338;2023-05-10T07:25:48;101424.47;;;12.88;69.33
70009;BME280;59542;37.950;-122.338;2023-05-10T07:28:15;101418.91;;;13.03;68.89
70009;BME280;59542;37.950;-122.338;2023-05-10T07:30:42;101424.28;;;12.76;70.13
70009;BME280;59542;37.950;-122.338;2023-05-10T07:33:09;101427.78;;;13.10;68.65
70009;BME280;59542;37.950;-122.338;2023-05-10T07:35:36;101425.50;;;12.93;69.01
70009;BME280;59542;37.950;-122.338;2023-05-10T07:38:02;101424.50;;;12.94;69.14
70009;BME280;59542;37.950;-122.338;2023-05-10T07:40:29;101426.13;;;12.82;69.37
70009;BME280;59542;37.950;-122.338;2023-05-10T07:42:56;101416.00;;;12.98;68.87
70009;BME280;59542;37.950;-122.338;2023-05-10T07:45:22;101422.00;;;12.80;70.23
70009;BME280;59542;37.950;-122.338;2023-05-10T07:47:49;101422.22;;;12.72;71.19
70009;BME280;59542;37.950;-122.338;2023-05-10T07:50:15;101428.22;;;12.87;70.64
70009;BME280;59542;37.950;-122.338;2023-05-10T07:52:42;101424.50;;;12.68;70.44
70009;BME280;59542;37.950;-122.338;2023-05-10T07:55:09;101429.03;;;12.81;70.35
70009;BME280;59542;37.950;-122.338;2023-05-10T07:57:35;101427.78;;;12.63;70.65
70009;BME280;59542;37.950;-122.338;2023-05-10T08:00:02;101423.25;;;12.64;70.73
70009;BME280;59542;37.950;-122.338;2023-05-10T08:02:29;101424.06;;;12.71;70.65
70009;BME280;59542;37.950;-122.338;2023-05-10T08:04:55;101424.06;;;12.58;70.93
70009;BME280;59542;37.950;-122.338;2023-05-10T08:07:21;101430.91;;;12.67;71.06
70009;BME280;59542;37.950;-122.338;2023-05-10T08:09:48;101432.53;;;12.61;70.95
70009;BME280;59542;37.950;-122.338;2023-05-10T08:12:15;101430.47;;;12.70;70.67
70009;BME280;59542;37.950;-122.338;2023-05-10T08:14:41;101433.59;;;12.80;70.68
70009;BME280;59542;37.950;-122.338;2023-05-10T08:17:07;101425.53;;;12.67;71.04
70009;BME280;59542;37.950;-122.338;2023-05-10T08:19:33;101421.19;;;12.66;70.81
70009;BME280;59542;37.950;-122.338;2023-05-10T08:22:00;101422.41;;;12.57;70.88
70009;BME280;59542;37.950;-122.338;2023-05-10T08:24:26;101423.63;;;12.48;71.34
70009;BME280;59542;37.950;-122.338;2023-05-10T08:26:53;101427.78;;;12.57;71.18
70009;BME280;59542;37.950;-122.338;2023-05-10T08:29:19;101429.00;;;12.41;71.46
70009;BME280;59542;37.950;-122.338;2023-05-10T08:31:45;101418.47;;;12.46;71.60
70009;BME280;59542;37.950;-122.338;2023-05-10T08:34:11;101416.22;;;12.50;71.50
70009;BME280;59542;37.950;-122.338;2023-05-10T08:36:37;101417.25;;;12.62;71.30
70009;BME280;59542;37.950;-122.338;2023-05-10T08:39:04;101407.53;;;12.48;71.35
70009;BME280;59542;37.950;-122.338;2023-05-10T08:41:33;101405.47;;;12.50;71.46
70009;BME280;59542;37.950;-122.338;2023-05-10T08:44:02;101410.41;;;12.39;71.70
70009;BME280;59542;37.950;-122.338;2023-05-10T08:46:31;101404.59;;;12.23;72.44
70009;BME280;59542;37.950;-122.338;2023-05-10T08:49:02;101407.91;;;12.31;71.67
70009;BME280;59542;37.950;-122.338;2023-05-10T08:51:36;101409.75;;;12.18;72.14
70009;BME280;59542;37.950;-122.338;2023-05-10T08:54:06;101402.09;;;12.21;72.05
70009;BME280;59542;37.950;-122.338;2023-05-10T08:56:32;101407.88;;;12.18;71.51
70009;BME280;59542;37.950;-122.338;2023-05-10T08:58:59;101407.28;;;12.29;71.21
70009;BME280;59542;37.950;-122.338;2023-05-10T09:01:25;101393.66;;;12.37;70.96
70009;BME280;59542;37.950;-122.338;2023-05-10T09:03:53;101400.81;;;12.04;71.83
70009;BME280;59542;37.950;-122.338;2023-05-10T09:06:19;101397.13;;;12.05;71.86
70009;BME280;59542;37.950;-122.338;2023-05-10T09:08:46;101404.09;;;11.99;71.30
70009;BME280;59542;37.950;-122.338;2023-05-10T09:11:13;101398.94;;;11.98;71.34
70009;BME280;59542;37.950;-122.338;2023-05-10T09:13:40;101392.31;;;11.87;71.75
70009;BME280;59542;37.950;-122.338;2023-05-10T09:16:06;101389.44;;;11.88;71.38
70009;BME280;59542;37.950;-122.338;2023-05-10T09:18:33;101394.97;;;11.87;71.34
70009;BME280;59542;37.950;-122.338;2023-05-10T09:20:59;101388.50;;;11.75;71.99
70009;BME280;59542;37.950;-122.338;2023-05-10T09:23:25;101384.84;;;11.82;71.38
70009;BME280;59542;37.950;-122.338;2023-05-10T09:26:04;101381.63;;;11.59;71.86
70009;BME280;59542;37.950;-122.338;2023-05-10T09:28:34;101379.41;;;11.69;71.46
70009;BME280;59542;37.950;-122.338;2023-05-10T09:31:15;101380.25;;;11.76;70.88
70009;BME280;59542;37.950;-122.338;2023-05-10T09:33:45;101382.09;;;11.69;71.01
70009;BME280;59542;37.950;-122.338;2023-05-10T09:36:13;101387.47;;;11.76;70.77
70009;BME280;59542;37.950;-122.338;2023-05-10T09:38:50;101388.72;;;11.73;70.43
70009;BME280;59542;37.950;-122.338;2023-05-10T09:41:22;101384.78;;;11.76;70.11
70009;BME280;59542;37.950;-122.338;2023-05-10T09:43:49;101388.06;;;11.71;69.80
70009;BME280;59542;37.950;-122.338;2023-05-10T09:46:16;101384.78;;;11.69;70.03
70009;BME280;59542;37.950;-122.338;2023-05-10T09:48:44;101381.72;;;11.72;69.55
70009;BME280;59542;37.950;-122.338;2023-05-10T09:51:14;101385.19;;;11.66;70.09
70009;BME280;59542;37.950;-122.338;2023-05-10T09:53:44;101383.75;;;11.70;70.17
70009;BME280;59542;37.950;-122.338;2023-05-10T09:56:11;101385.22;;;11.73;69.98
70009;BME280;59542;37.950;-122.338;2023-05-10T09:58:37;101379.59;;;11.61;70.37
70009;BME280;59542;37.950;-122.338;2023-05-10T10:01:04;101384.91;;;11.54;71.04
70009;BME280;59542;37.950;-122.338;2023-05-10T10:03:30;101388.31;;;11.76;70.89
70009;BME280;59542;37.950;-122.338;2023-05-10T10:05:56;101389.50;;;11.60;71.23
70009;BME280;59542;37.950;-122.338;2023-05-10T10:08:23;101393.84;;;11.61;71.10
70009;BME280;59542;37.950;-122.338;2023-05-10T10:10:50;101397.25;;;11.49;71.47
70009;BME280;59542;37.950;-122.338;2023-05-10T10:13:16;101389.84;;;11.44;71.60
70009;BME280;59542;37.950;-122.338;2023-05-10T10:15:43;101398.81;;;11.30;72.31
70009;BME280;59542;37.950;-122.338;2023-05-10T10:18:16;101402.91;;;11.26;72.23
70009;BME280;59542;37.950;-122.338;2023-05-10T10:20:43;101407.06;;;11.28;71.95
70009;BME280;59542;37.950;-122.338;2023-05-10T10:23:10;101406.69;;;11.38;72.26
70009;BME280;59542;37.950;-122.338;2023-05-10T10:25:38;101402.88;;;11.19;72.72
70009;BME280;59542;37.950;-122.338;2023-05-10T10:28:21;101395.28;;;11.23;73.16
70009;BME280;59542;37.950;-122.338;2023-05-10T10:30:51;101391.69;;;11.16;73.01
70009;BME280;59542;37.950;-122.338;2023-05-10T10:36:06;101393.47;;;11.02;72.68
70009;BME280;59542;37.950;-122.338;2023-05-10T10:44:25;101384.56;;;10.95;72.97
70009;BME280;59542;37.950;-122.338;2023-05-10T10:49:51;101386.09;;;10.82;74.33
70009;BME280;59542;37.950;-122.338;2023-05-10T10:55:14;101402.25;;;10.89;74.88
70009;BME280;59542;37.950;-122.338;2023-05-10T11:05:37;101402.38;;;11.09;74.98
70009;BME280;59542;37.950;-122.338;2023-05-10T11:08:28;101396.63;;;11.12;75.01
70009;BME280;59542;37.950;-122.338;2023-05-10T11:16:21;101401.63;;;10.94;75.06
70009;BME280;59542;37.950;-122.338;2023-05-10T11:19:03;101397.97;;;10.95;74.89
70009;BME280;59542;37.950;-122.338;2023-05-10T11:21:31;101407.13;;;11.07;74.46
70009;BME280;59542;37.950;-122.338;2023-05-10T11:23:59;101405.38;;;10.71;75.86
70009;BME280;59542;37.950;-122.338;2023-05-10T11:26:35;101405.22;;;10.51;77.78
70009;BME280;59542;37.950;-122.338;2023-05-10T11:29:02;101416.28;;;10.48;78.14
70009;BME280;59542;37.950;-122.338;2023-05-10T11:31:30;101405.91;;;10.60;77.57
70009;BME280;59542;37.950;-122.338;2023-05-10T11:33:58;101407.16;;;10.86;76.93
70009;BME280;59542;37.950;-122.338;2023-05-10T11:36:27;101413.50;;;10.56;77.25
70009;BME280;59542;37.950;-122.338;2023-05-10T11:38:55;101411.13;;;10.47;77.44
70009;BME280;59542;37.950;-122.338;2023-05-10T11:41:23;101414.22;;;10.44;77.38
70009;BME280;59542;37.950;-122.338;2023-05-10T11:43:50;101414.31;;;10.36;77.40
70009;BME280;59542;37.950;-122.338;2023-05-10T11:46:19;101424.00;;;10.37;77.25
70009;BME280;59542;37.950;-122.338;2023-05-10T11:48:49;101423.19;;;10.36;77.18
70009;BME280;59542;37.950;-122.338;2023-05-10T11:51:23;101434.50;;;10.60;76.50
70009;BME280;59542;37.950;-122.338;2023-05-10T11:53:54;101428.59;;;10.43;76.16
70009;BME280;59542;37.950;-122.338;2023-05-10T11:56:21;101427.97;;;10.41;76.25
70009;BME280;59542;37.950;-122.338;2023-05-10T11:58:56;101428.59;;;10.43;76.87
70009;BME280;59542;37.950;-122.338;2023-05-10T12:01:24;101443.75;;;10.36;77.28
70009;BME280;59542;37.950;-122.338;2023-05-10T12:03:52;101448.34;;;10.42;76.63
70009;BME280;59542;37.950;-122.338;2023-05-10T12:06:20;101440.56;;;10.47;76.97
70009;BME280;59542;37.950;-122.338;2023-05-10T12:08:48;101448.59;;;10.47;77.68
70009;BME280;59542;37.950;-122.338;2023-05-10T12:11:18;101460.69;;;10.43;78.03
70009;BME280;59542;37.950;-122.338;2023-05-10T12:13:44;101461.47;;;10.37;77.68
70009;BME280;59542;37.950;-122.338;2023-05-10T12:16:20;101463.47;;;10.49;77.48
70009;BME280;59542;37.950;-122.338;2023-05-10T12:18:56;101452.56;;;10.51;77.30
70009;BME280;59542;37.950;-122.338;2023-05-10T12:21:23;101460.19;;;10.54;77.71
70009;BME280;59542;37.950;-122.338;2023-05-10T12:23:59;101458.03;;;10.64;76.29
70009;BME280;59542;37.950;-122.338;2023-05-10T12:26:26;101455.66;;;10.54;77.32
70009;BME280;59542;37.950;-122.338;2023-05-10T12:28:54;101455.31;;;10.57;76.92
70009;BME280;59542;37.950;-122.338;2023-05-10T12:31:21;101466.78;;;10.51;77.34
70009;BME280;59542;37.950;-122.338;2023-05-10T12:33:47;101465.28;;;10.49;77.57
70009;BME280;59542;37.950;-122.338;2023-05-10T12:36:16;101472.13;;;10.51;77.57
70009;BME280;59542;37.950;-122.338;2023-05-10T12:38:44;101474.88;;;10.58;76.83
70009;BME280;59542;37.950;-122.338;2023-05-10T12:41:16;101470.13;;;10.60;76.71
70009;BME280;59542;37.950;-122.338;2023-05-10T12:43:43;101474.88;;;10.58;76.36
70009;BME280;59542;37.950;-122.338;2023-05-10T12:46:11;101469.00;;;10.69;76.26
70009;BME280;59542;37.950;-122.338;2023-05-10T12:48:39;101473.53;;;10.69;76.05
70009;BME280;59542;37.950;-122.338;2023-05-10T12:51:06;101475.63;;;10.52;76.39
70009;BME280;59542;37.950;-122.338;2023-05-10T12:53:38;101477.19;;;10.61;76.22
70009;BME280;59542;37.950;-122.338;2023-05-10T12:56:04;101484.81;;;10.64;75.87
70009;BME280;59542;37.950;-122.338;2023-05-10T12:58:31;101474.81;;;10.51;76.51
70009;BME280;59542;37.950;-122.338;2023-05-10T13:00:58;101485.06;;;10.48;77.36
70009;BME280;59542;37.950;-122.338;2023-05-10T13:03:25;101486.84;;;10.41;77.07
70009;BME280;59542;37.950;-122.338;2023-05-10T13:05:52;101492.09;;;10.19;78.64
70009;BME280;59542;37.950;-122.338;2023-05-10T13:08:18;101490.66;;;10.53;77.56
70009;BME280;59542;37.950;-122.338;2023-05-10T13:10:44;101487.66;;;10.41;77.83